Helena, Arkansas
Current Conditions -  °F | °C
As of 4:35 PM on Monday 24 Nov 2014 (Local Time) from KCKM Reporting Station
Clear Clear  
Wind Chill: 54°   Ceiling: Unl
Heat Index: 54°   Visibility: 10mi
Dew Point: 37°   Wind: 6mph
Humidity: 54%   Direction: 260°W
Pressure: 29.99"   Gusts: NA
Location:  34.53°N, 90.59°W
Report Text: KCKM 242235Z AUTO 26005KT 10SM CLR 12/03 A2999 RMK AO1
Loading
Personal Weather Stations






























Interactive Weather Map New forecast layout! Learn more

10-Day Weather Forecast

Advertisements
Track Severe Weather on mobile